sensor_id;sensor_type;location;lat;lon;timestamp;P1;durP1;ratioP1;P2;durP2;ratioP2
59756;SDS011;45631;51.962;5.974;2023-08-20T00:01:30;16.10;;;8.77;;
59756;SDS011;45631;51.962;5.974;2023-08-20T00:03:59;14.75;;;8.88;;
59756;SDS011;45631;51.962;5.974;2023-08-20T00:06:27;16.52;;;9.15;;
59756;SDS011;45631;51.962;5.974;2023-08-20T00:08:56;18.08;;;8.52;;
59756;SDS011;45631;51.962;5.974;2023-08-20T00:11:24;14.75;;;8.50;;
59756;SDS011;45631;51.962;5.974;2023-08-20T00:13:52;13.13;;;8.30;;
59756;SDS011;45631;51.962;5.974;2023-08-20T00:16:22;12.68;;;8.45;;
59756;SDS011;45631;51.962;5.974;2023-08-20T00:18:51;12.77;;;8.15;;
59756;SDS011;45631;51.962;5.974;2023-08-20T00:21:19;15.57;;;8.15;;
59756;SDS011;45631;51.962;5.974;2023-08-20T00:23:48;11.45;;;7.75;;
59756;SDS011;45631;51.962;5.974;2023-08-20T00:26:17;13.82;;;8.35;;
59756;SDS011;45631;51.962;5.974;2023-08-20T00:28:45;13.88;;;8.32;;
59756;SDS011;45631;51.962;5.974;2023-08-20T00:31:14;14.80;;;7.47;;
59756;SDS011;45631;51.962;5.974;2023-08-20T00:33:46;13.55;;;7.75;;
59756;SDS011;45631;51.962;5.974;2023-08-20T00:36:31;13.07;;;7.13;;
59756;SDS011;45631;51.962;5.974;2023-08-20T00:38:59;14.50;;;7.78;;
59756;SDS011;45631;51.962;5.974;2023-08-20T00:41:28;12.57;;;7.38;;
59756;SDS011;45631;51.962;5.974;2023-08-20T00:43:56;13.45;;;7.88;;
59756;SDS011;45631;51.962;5.974;2023-08-20T00:46:24;13.13;;;7.75;;
59756;SDS011;45631;51.962;5.974;2023-08-20T00:48:54;15.27;;;7.78;;
59756;SDS011;45631;51.962;5.974;2023-08-20T00:51:23;13.80;;;7.90;;
59756;SDS011;45631;51.962;5.974;2023-08-20T00:53:53;12.65;;;7.45;;
59756;SDS011;45631;51.962;5.974;2023-08-20T00:56:21;12.05;;;7.65;;
59756;SDS011;45631;51.962;5.974;2023-08-20T00:58:49;12.82;;;7.57;;
59756;SDS011;45631;51.962;5.974;2023-08-20T01:01:18;13.68;;;8.32;;
59756;SDS011;45631;51.962;5.974;2023-08-20T01:03:46;15.68;;;7.90;;
59756;SDS011;45631;51.962;5.974;2023-08-20T01:06:17;14.43;;;7.72;;
59756;SDS011;45631;51.962;5.974;2023-08-20T01:08:57;11.02;;;6.70;;
59756;SDS011;45631;51.962;5.974;2023-08-20T01:11:41;14.25;;;7.53;;
59756;SDS011;45631;51.962;5.974;2023-08-20T01:14:17;13.23;;;7.78;;
59756;SDS011;45631;51.962;5.974;2023-08-20T01:17:18;13.32;;;8.30;;
59756;SDS011;45631;51.962;5.974;2023-08-20T01:19:46;15.10;;;8.75;;
59756;SDS011;45631;51.962;5.974;2023-08-20T01:22:26;13.00;;;8.13;;
59756;SDS011;45631;51.962;5.974;2023-08-20T01:25:18;11.75;;;7.88;;
59756;SDS011;45631;51.962;5.974;2023-08-20T01:27:58;12.20;;;8.57;;
59756;SDS011;45631;51.962;5.974;2023-08-20T01:30:37;13.00;;;8.45;;
59756;SDS011;45631;51.962;5.974;2023-08-20T01:33:06;15.40;;;9.05;;
59756;SDS011;45631;51.962;5.974;2023-08-20T01:35:35;13.52;;;8.05;;
59756;SDS011;45631;51.962;5.974;2023-08-20T01:38:03;12.10;;;8.38;;
59756;SDS011;45631;51.962;5.974;2023-08-20T01:40:31;12.93;;;7.93;;
59756;SDS011;45631;51.962;5.974;2023-08-20T01:42:59;14.50;;;9.20;;
59756;SDS011;45631;51.962;5.974;2023-08-20T01:45:28;14.02;;;8.32;;
59756;SDS011;45631;51.962;5.974;2023-08-20T01:47:57;17.70;;;9.23;;
59756;SDS011;45631;51.962;5.974;2023-08-20T01:50:25;15.35;;;9.23;;
59756;SDS011;45631;51.962;5.974;2023-08-20T01:52:53;13.48;;;9.05;;
59756;SDS011;45631;51.962;5.974;2023-08-20T01:55:22;12.00;;;8.52;;
59756;SDS011;45631;51.962;5.974;2023-08-20T01:57:50;15.18;;;8.32;;
59756;SDS011;45631;51.962;5.974;2023-08-20T02:00:20;13.90;;;8.65;;
59756;SDS011;45631;51.962;5.974;2023-08-20T02:02:48;13.88;;;8.70;;
59756;SDS011;45631;51.962;5.974;2023-08-20T02:05:18;13.55;;;8.10;;
59756;SDS011;45631;51.962;5.974;2023-08-20T02:07:46;14.05;;;8.13;;
59756;SDS011;45631;51.962;5.974;2023-08-20T02:10:14;13.68;;;8.23;;
59756;SDS011;45631;51.962;5.974;2023-08-20T02:12:43;14.00;;;7.72;;
59756;SDS011;45631;51.962;5.974;2023-08-20T02:15:11;13.50;;;7.78;;
59756;SDS011;45631;51.962;5.974;2023-08-20T02:17:39;12.88;;;7.72;;
59756;SDS011;45631;51.962;5.974;2023-08-20T02:20:07;12.93;;;7.40;;
59756;SDS011;45631;51.962;5.974;2023-08-20T02:22:38;13.02;;;7.55;;
59756;SDS011;45631;51.962;5.974;2023-08-20T02:25:07;11.82;;;7.40;;
59756;SDS011;45631;51.962;5.974;2023-08-20T02:27:35;13.73;;;7.57;;
59756;SDS011;45631;51.962;5.974;2023-08-20T02:30:04;12.30;;;8.13;;
59756;SDS011;45631;51.962;5.974;2023-08-20T02:32:33;14.13;;;7.82;;
59756;SDS011;45631;51.962;5.974;2023-08-20T02:35:02;13.65;;;8.57;;
59756;SDS011;45631;51.962;5.974;2023-08-20T02:37:32;14.60;;;8.88;;
59756;SDS011;45631;51.962;5.974;2023-08-20T02:40:02;14.30;;;9.07;;
59756;SDS011;45631;51.962;5.974;2023-08-20T02:42:31;14.00;;;7.93;;
59756;SDS011;45631;51.962;5.974;2023-08-20T02:44:59;14.02;;;8.23;;
59756;SDS011;45631;51.962;5.974;2023-08-20T02:47:27;12.15;;;8.15;;
59756;SDS011;45631;51.962;5.974;2023-08-20T02:49:56;12.77;;;8.15;;
59756;SDS011;45631;51.962;5.974;2023-08-20T02:52:24;14.25;;;9.05;;
59756;SDS011;45631;51.962;5.974;2023-08-20T02:54:52;12.15;;;9.30;;
59756;SDS011;45631;51.962;5.974;2023-08-20T02:57:21;12.90;;;8.52;;
59756;SDS011;45631;51.962;5.974;2023-08-20T02:59:50;16.05;;;8.85;;
59756;SDS011;45631;51.962;5.974;2023-08-20T03:02:18;14.52;;;8.32;;
59756;SDS011;45631;51.962;5.974;2023-08-20T03:04:46;15.43;;;9.23;;
59756;SDS011;45631;51.962;5.974;2023-08-20T03:07:14;11.75;;;9.00;;
59756;SDS011;45631;51.962;5.974;2023-08-20T03:09:43;12.52;;;8.88;;
59756;SDS011;45631;51.962;5.974;2023-08-20T03:12:11;13.07;;;8.27;;
59756;SDS011;45631;51.962;5.974;2023-08-20T03:14:40;13.02;;;9.13;;
59756;SDS011;45631;51.962;5.974;2023-08-20T03:17:08;13.15;;;9.05;;
59756;SDS011;45631;51.962;5.974;2023-08-20T03:19:36;11.85;;;8.73;;
59756;SDS011;45631;51.962;5.974;2023-08-20T03:22:20;13.65;;;8.98;;
59756;SDS011;45631;51.962;5.974;2023-08-20T03:24:48;14.32;;;8.88;;
59756;SDS011;45631;51.962;5.974;2023-08-20T03:27:17;15.77;;;9.43;;
59756;SDS011;45631;51.962;5.974;2023-08-20T03:29:46;14.40;;;9.38;;
59756;SDS011;45631;51.962;5.974;2023-08-20T03:32:17;13.25;;;9.88;;
59756;SDS011;45631;51.962;5.974;2023-08-20T03:34:46;12.00;;;8.90;;
59756;SDS011;45631;51.962;5.974;2023-08-20T03:37:14;16.15;;;10.13;;
59756;SDS011;45631;51.962;5.974;2023-08-20T03:39:42;15.63;;;9.75;;
59756;SDS011;45631;51.962;5.974;2023-08-20T03:42:10;14.85;;;10.00;;
59756;SDS011;45631;51.962;5.974;2023-08-20T03:44:38;18.25;;;11.18;;
59756;SDS011;45631;51.962;5.974;2023-08-20T03:47:08;14.38;;;10.75;;
59756;SDS011;45631;51.962;5.974;2023-08-20T03:49:37;14.52;;;8.75;;
59756;SDS011;45631;51.962;5.974;2023-08-20T03:52:05;12.50;;;9.52;;
59756;SDS011;45631;51.962;5.974;2023-08-20T03:54:33;13.57;;;9.40;;
59756;SDS011;45631;51.962;5.974;2023-08-20T03:57:01;14.20;;;10.23;;
59756;SDS011;45631;51.962;5.974;2023-08-20T03:59:30;12.77;;;9.90;;
59756;SDS011;45631;51.962;5.974;2023-08-20T04:01:58;14.93;;;9.13;;
59756;SDS011;45631;51.962;5.974;2023-08-20T04:04:28;17.02;;;9.90;;
59756;SDS011;45631;51.962;5.974;2023-08-20T04:06:56;14.13;;;10.10;;
59756;SDS011;45631;51.962;5.974;2023-08-20T04:09:24;13.00;;;9.48;;
59756;SDS011;45631;51.962;5.974;2023-08-20T04:11:52;12.38;;;9.15;;
59756;SDS011;45631;51.962;5.974;2023-08-20T04:14:20;17.10;;;9.70;;
59756;SDS011;45631;51.962;5.974;2023-08-20T04:16:49;12.95;;;9.65;;
59756;SDS011;45631;51.962;5.974;2023-08-20T04:19:17;12.63;;;9.25;;
59756;SDS011;45631;51.962;5.974;2023-08-20T04:21:46;12.55;;;9.40;;
59756;SDS011;45631;51.962;5.974;2023-08-20T04:24:14;13.43;;;8.70;;
59756;SDS011;45631;51.962;5.974;2023-08-20T04:26:43;15.07;;;10.35;;
59756;SDS011;45631;51.962;5.974;2023-08-20T04:29:11;18.20;;;10.00;;
59756;SDS011;45631;51.962;5.974;2023-08-20T04:31:39;15.73;;;10.00;;
59756;SDS011;45631;51.962;5.974;2023-08-20T04:34:08;15.13;;;10.05;;
59756;SDS011;45631;51.962;5.974;2023-08-20T04:36:36;13.50;;;8.55;;
59756;SDS011;45631;51.962;5.974;2023-08-20T04:39:05;12.38;;;8.55;;
59756;SDS011;45631;51.962;5.974;2023-08-20T04:41:33;11.13;;;8.43;;
59756;SDS011;45631;51.962;5.974;2023-08-20T04:44:02;14.25;;;8.85;;
59756;SDS011;45631;51.962;5.974;2023-08-20T04:46:30;14.65;;;9.27;;
59756;SDS011;45631;51.962;5.974;2023-08-20T04:48:58;13.38;;;8.88;;
59756;SDS011;45631;51.962;5.974;2023-08-20T04:51:27;12.82;;;8.82;;
59756;SDS011;45631;51.962;5.974;2023-08-20T04:53:55;13.02;;;8.85;;
59756;SDS011;45631;51.962;5.974;2023-08-20T04:56:24;12.85;;;8.27;;
59756;SDS011;45631;51.962;5.974;2023-08-20T04:58:55;12.18;;;8.52;;
59756;SDS011;45631;51.962;5.974;2023-08-20T05:01:23;13.95;;;8.90;;
59756;SDS011;45631;51.962;5.974;2023-08-20T05:03:51;11.88;;;8.40;;
59756;SDS011;45631;51.962;5.974;2023-08-20T05:06:19;11.60;;;7.53;;
59756;SDS011;45631;51.962;5.974;2023-08-20T05:08:49;9.07;;;7.10;;
59756;SDS011;45631;51.962;5.974;2023-08-20T05:11:17;11.95;;;7.38;;
59756;SDS011;45631;51.962;5.974;2023-08-20T05:13:47;12.38;;;7.57;;
59756;SDS011;45631;51.962;5.974;2023-08-20T05:16:17;11.95;;;8.10;;
59756;SDS011;45631;51.962;5.974;2023-08-20T05:18:45;12.32;;;8.27;;
59756;SDS011;45631;51.962;5.974;2023-08-20T05:21:13;13.30;;;7.97;;
59756;SDS011;45631;51.962;5.974;2023-08-20T05:23:41;13.50;;;8.48;;
59756;SDS011;45631;51.962;5.974;2023-08-20T05:26:09;14.82;;;9.38;;
59756;SDS011;45631;51.962;5.974;2023-08-20T05:28:37;12.35;;;8.15;;
59756;SDS011;45631;51.962;5.974;2023-08-20T05:31:07;13.25;;;8.32;;
59756;SDS011;45631;51.962;5.974;2023-08-20T05:33:37;12.88;;;8.50;;
59756;SDS011;45631;51.962;5.974;2023-08-20T05:36:05;13.20;;;8.70;;
59756;SDS011;45631;51.962;5.974;2023-08-20T05:38:34;12.73;;;8.50;;
59756;SDS011;45631;51.962;5.974;2023-08-20T05:41:02;11.52;;;8.60;;
59756;SDS011;45631;51.962;5.974;2023-08-20T05:43:30;12.48;;;8.40;;
59756;SDS011;45631;51.962;5.974;2023-08-20T05:45:58;14.48;;;10.35;;
59756;SDS011;45631;51.962;5.974;2023-08-20T05:48:27;21.10;;;11.18;;
59756;SDS011;45631;51.962;5.974;2023-08-20T05:50:56;18.02;;;10.77;;
59756;SDS011;45631;51.962;5.974;2023-08-20T05:53:24;15.90;;;10.95;;
59756;SDS011;45631;51.962;5.974;2023-08-20T05:55:52;16.05;;;10.77;;
59756;SDS011;45631;51.962;5.974;2023-08-20T05:58:20;15.98;;;10.90;;
59756;SDS011;45631;51.962;5.974;2023-08-20T06:00:50;16.15;;;11.13;;
59756;SDS011;45631;51.962;5.974;2023-08-20T06:03:19;21.98;;;13.90;;
59756;SDS011;45631;51.962;5.974;2023-08-20T06:05:51;21.95;;;12.23;;
59756;SDS011;45631;51.962;5.974;2023-08-20T06:08:19;16.65;;;11.40;;
59756;SDS011;45631;51.962;5.974;2023-08-20T06:10:47;19.52;;;12.20;;
59756;SDS011;45631;51.962;5.974;2023-08-20T06:13:15;18.60;;;12.73;;
59756;SDS011;45631;51.962;5.974;2023-08-20T06:15:43;18.15;;;12.65;;
59756;SDS011;45631;51.962;5.974;2023-08-20T06:18:12;22.17;;;10.95;;
59756;SDS011;45631;51.962;5.974;2023-08-20T06:20:40;20.35;;;11.02;;
59756;SDS011;45631;51.962;5.974;2023-08-20T06:23:10;16.83;;;9.05;;
59756;SDS011;45631;51.962;5.974;2023-08-20T06:25:53;16.55;;;9.73;;
59756;SDS011;45631;51.962;5.974;2023-08-20T06:28:21;14.77;;;8.25;;
59756;SDS011;45631;51.962;5.974;2023-08-20T06:30:49;15.68;;;8.05;;
59756;SDS011;45631;51.962;5.974;2023-08-20T06:33:17;12.32;;;6.65;;
59756;SDS011;45631;51.962;5.974;2023-08-20T06:35:45;15.85;;;7.75;;
59756;SDS011;45631;51.962;5.974;2023-08-20T06:38:15;15.50;;;7.00;;
59756;SDS011;45631;51.962;5.974;2023-08-20T06:40:43;11.32;;;5.65;;
59756;SDS011;45631;51.962;5.974;2023-08-20T06:43:11;12.30;;;6.07;;
59756;SDS011;45631;51.962;5.974;2023-08-20T06:45:39;14.07;;;5.45;;
59756;SDS011;45631;51.962;5.974;2023-08-20T06:48:07;12.95;;;5.20;;
59756;SDS011;45631;51.962;5.974;2023-08-20T06:50:36;13.30;;;5.00;;
59756;SDS011;45631;51.962;5.974;2023-08-20T06:53:04;12.95;;;4.95;;
59756;SDS011;45631;51.962;5.974;2023-08-20T06:55:34;10.10;;;4.20;;
59756;SDS011;45631;51.962;5.974;2023-08-20T06:58:02;11.55;;;4.38;;
59756;SDS011;45631;51.962;5.974;2023-08-20T07:00:31;23.27;;;5.30;;
59756;SDS011;45631;51.962;5.974;2023-08-20T07:02:59;13.13;;;3.78;;
59756;SDS011;45631;51.962;5.974;2023-08-20T07:05:30;12.00;;;3.67;;
59756;SDS011;45631;51.962;5.974;2023-08-20T07:07:58;11.10;;;3.17;;
59756;SDS011;45631;51.962;5.974;2023-08-20T07:10:26;9.68;;;3.45;;
59756;SDS011;45631;51.962;5.974;2023-08-20T07:12:56;9.73;;;2.88;;
59756;SDS011;45631;51.962;5.974;2023-08-20T07:15:24;14.75;;;3.65;;
59756;SDS011;45631;51.962;5.974;2023-08-20T07:17:52;11.27;;;3.03;;
59756;SDS011;45631;51.962;5.974;2023-08-20T07:20:20;12.13;;;2.90;;
59756;SDS011;45631;51.962;5.974;2023-08-20T07:22:48;11.10;;;2.85;;
59756;SDS011;45631;51.962;5.974;2023-08-20T07:25:16;6.97;;;2.28;;
59756;SDS011;45631;51.962;5.974;2023-08-20T07:27:44;11.68;;;2.22;;
59756;SDS011;45631;51.962;5.974;2023-08-20T07:30:14;8.88;;;2.47;;
59756;SDS011;45631;51.962;5.974;2023-08-20T07:32:42;11.85;;;2.90;;
59756;SDS011;45631;51.962;5.974;2023-08-20T07:35:11;10.25;;;2.50;;
59756;SDS011;45631;51.962;5.974;2023-08-20T07:37:39;10.45;;;2.50;;
59756;SDS011;45631;51.962;5.974;2023-08-20T07:40:09;6.70;;;2.15;;
59756;SDS011;45631;51.962;5.974;2023-08-20T07:42:42;9.00;;;2.17;;
59756;SDS011;45631;51.962;5.974;2023-08-20T07:45:11;9.30;;;2.30;;
59756;SDS011;45631;51.962;5.974;2023-08-20T07:47:41;7.25;;;2.10;;
59756;SDS011;45631;51.962;5.974;2023-08-20T07:50:09;10.00;;;2.33;;
59756;SDS011;45631;51.962;5.974;2023-08-20T07:52:40;9.15;;;2.08;;
59756;SDS011;45631;51.962;5.974;2023-08-20T07:55:08;7.32;;;1.83;;
59756;SDS011;45631;51.962;5.974;2023-08-20T07:57:36;8.15;;;2.15;;
59756;SDS011;45631;51.962;5.974;2023-08-20T08:00:05;8.50;;;1.80;;
59756;SDS011;45631;51.962;5.974;2023-08-20T08:02:34;13.75;;;2.13;;
59756;SDS011;45631;51.962;5.974;2023-08-20T08:05:03;6.07;;;1.58;;
59756;SDS011;45631;51.962;5.974;2023-08-20T08:07:32;9.65;;;1.98;;
59756;SDS011;45631;51.962;5.974;2023-08-20T08:10:01;8.02;;;1.95;;
59756;SDS011;45631;51.962;5.974;2023-08-20T08:12:29;5.85;;;1.60;;
59756;SDS011;45631;51.962;5.974;2023-08-20T08:14:58;6.75;;;1.80;;
59756;SDS011;45631;51.962;5.974;2023-08-20T08:17:26;7.55;;;1.88;;
59756;SDS011;45631;51.962;5.974;2023-08-20T08:19:54;8.10;;;1.85;;
59756;SDS011;45631;51.962;5.974;2023-08-20T08:22:24;10.05;;;2.30;;
59756;SDS011;45631;51.962;5.974;2023-08-20T08:24:52;7.72;;;1.90;;
59756;SDS011;45631;51.962;5.974;2023-08-20T08:27:20;8.40;;;1.92;;
59756;SDS011;45631;51.962;5.974;2023-08-20T08:29:50;4.75;;;1.50;;
59756;SDS011;45631;51.962;5.974;2023-08-20T08:32:18;7.13;;;1.48;;
59756;SDS011;45631;51.962;5.974;2023-08-20T08:34:46;8.95;;;1.75;;
59756;SDS011;45631;51.962;5.974;2023-08-20T08:37:14;7.82;;;1.63;;
59756;SDS011;45631;51.962;5.974;2023-08-20T08:39:44;9.02;;;2.00;;
59756;SDS011;45631;51.962;5.974;2023-08-20T08:42:12;9.25;;;2.10;;
59756;SDS011;45631;51.962;5.974;2023-08-20T08:44:41;4.07;;;1.30;;
59756;SDS011;45631;51.962;5.974;2023-08-20T08:47:11;7.35;;;1.42;;
59756;SDS011;45631;51.962;5.974;2023-08-20T08:49:39;6.80;;;1.50;;
59756;SDS011;45631;51.962;5.974;2023-08-20T08:52:07;5.20;;;1.38;;
59756;SDS011;45631;51.962;5.974;2023-08-20T08:54:37;6.05;;;1.45;;
59756;SDS011;45631;51.962;5.974;2023-08-20T08:57:07;4.95;;;1.30;;
59756;SDS011;45631;51.962;5.974;2023-08-20T08:59:35;6.60;;;1.42;;
59756;SDS011;45631;51.962;5.974;2023-08-20T09:02:06;6.68;;;1.67;;
59756;SDS011;45631;51.962;5.974;2023-08-20T09:04:38;5.47;;;1.38;;
59756;SDS011;45631;51.962;5.974;2023-08-20T09:07:10;6.80;;;1.40;;
59756;SDS011;45631;51.962;5.974;2023-08-20T09:09:41;4.97;;;1.15;;
59756;SDS011;45631;51.962;5.974;2023-08-20T09:12:14;6.05;;;1.40;;
59756;SDS011;45631;51.962;5.974;2023-08-20T09:14:44;4.45;;;1.25;;
59756;SDS011;45631;51.962;5.974;2023-08-20T09:17:14;4.25;;;1.40;;
59756;SDS011;45631;51.962;5.974;2023-08-20T09:19:46;6.82;;;1.20;;
59756;SDS011;45631;51.962;5.974;2023-08-20T09:22:15;4.60;;;1.10;;
59756;SDS011;45631;51.962;5.974;2023-08-20T09:24:44;4.32;;;1.00;;
59756;SDS011;45631;51.962;5.974;2023-08-20T09:27:15;4.85;;;0.98;;
59756;SDS011;45631;51.962;5.974;2023-08-20T09:29:44;6.25;;;1.27;;
59756;SDS011;45631;51.962;5.974;2023-08-20T09:32:16;5.55;;;1.00;;
59756;SDS011;45631;51.962;5.974;2023-08-20T09:34:47;6.70;;;1.15;;
59756;SDS011;45631;51.962;5.974;2023-08-20T09:37:17;3.42;;;0.90;;
59756;SDS011;45631;51.962;5.974;2023-08-20T09:39:47;4.65;;;1.00;;
59756;SDS011;45631;51.962;5.974;2023-08-20T09:42:17;5.85;;;1.00;;
59756;SDS011;45631;51.962;5.974;2023-08-20T09:44:46;3.15;;;0.93;;
59756;SDS011;45631;51.962;5.974;2023-08-20T09:47:17;3.08;;;0.77;;
59756;SDS011;45631;51.962;5.974;2023-08-20T09:49:48;4.60;;;1.13;;
59756;SDS011;45631;51.962;5.974;2023-08-20T09:52:17;3.53;;;0.90;;
59756;SDS011;45631;51.962;5.974;2023-08-20T09:54:57;4.35;;;1.25;;
59756;SDS011;45631;51.962;5.974;2023-08-20T09:57:34;3.70;;;0.80;;
59756;SDS011;45631;51.962;5.974;2023-08-20T10:00:05;1.55;;;0.65;;
59756;SDS011;45631;51.962;5.974;2023-08-20T10:02:36;3.22;;;0.80;;
59756;SDS011;45631;51.962;5.974;2023-08-20T10:05:08;4.90;;;1.00;;
59756;SDS011;45631;51.962;5.974;2023-08-20T10:07:38;2.85;;;0.90;;
59756;SDS011;45631;51.962;5.974;2023-08-20T10:10:07;4.07;;;0.98;;
59756;SDS011;45631;51.962;5.974;2023-08-20T10:12:40;5.50;;;1.13;;
59756;SDS011;45631;51.962;5.974;2023-08-20T10:15:10;3.33;;;0.90;;
59756;SDS011;45631;51.962;5.974;2023-08-20T10:17:40;3.45;;;0.98;;
59756;SDS011;45631;51.962;5.974;2023-08-20T10:20:10;2.60;;;0.90;;
59756;SDS011;45631;51.962;5.974;2023-08-20T10:22:41;3.78;;;1.00;;
59756;SDS011;45631;51.962;5.974;2023-08-20T10:25:11;5.45;;;0.90;;
59756;SDS011;45631;51.962;5.974;2023-08-20T10:27:50;4.65;;;1.00;;
59756;SDS011;45631;51.962;5.974;2023-08-20T10:30:24;3.47;;;0.90;;
59756;SDS011;45631;51.962;5.974;2023-08-20T10:32:54;2.75;;;0.80;;
59756;SDS011;45631;51.962;5.974;2023-08-20T10:35:28;3.45;;;0.70;;
59756;SDS011;45631;51.962;5.974;2023-08-20T10:38:14;2.42;;;0.75;;
59756;SDS011;45631;51.962;5.974;2023-08-20T10:40:52;3.63;;;0.70;;
59756;SDS011;45631;51.962;5.974;2023-08-20T10:43:30;2.10;;;0.55;;
59756;SDS011;45631;51.962;5.974;2023-08-20T10:46:02;2.38;;;0.60;;
59756;SDS011;45631;51.962;5.974;2023-08-20T10:48:36;1.83;;;0.63;;
59756;SDS011;45631;51.962;5.974;2023-08-20T10:51:06;4.25;;;0.88;;
59756;SDS011;45631;51.962;5.974;2023-08-20T10:53:39;3.40;;;0.88;;
59756;SDS011;45631;51.962;5.974;2023-08-20T10:56:12;3.78;;;1.00;;
59756;SDS011;45631;51.962;5.974;2023-08-20T10:58:43;3.47;;;0.85;;
59756;SDS011;45631;51.962;5.974;2023-08-20T11:01:13;2.70;;;0.80;;
59756;SDS011;45631;51.962;5.974;2023-08-20T11:03:43;9.48;;;1.55;;
59756;SDS011;45631;51.962;5.974;2023-08-20T11:06:14;6.63;;;1.55;;
59756;SDS011;45631;51.962;5.974;2023-08-20T11:08:42;5.70;;;1.40;;
59756;SDS011;45631;51.962;5.974;2023-08-20T11:11:11;4.57;;;0.80;;
59756;SDS011;45631;51.962;5.974;2023-08-20T11:13:40;3.28;;;1.00;;
59756;SDS011;45631;51.962;5.974;2023-08-20T11:16:10;2.45;;;0.77;;
59756;SDS011;45631;51.962;5.974;2023-08-20T11:18:39;3.38;;;0.90;;
59756;SDS011;45631;51.962;5.974;2023-08-20T11:21:08;3.88;;;0.82;;
59756;SDS011;45631;51.962;5.974;2023-08-20T11:23:36;3.25;;;0.82;;
59756;SDS011;45631;51.962;5.974;2023-08-20T11:26:10;4.10;;;0.93;;
59756;SDS011;45631;51.962;5.974;2023-08-20T11:28:38;4.00;;;0.95;;
59756;SDS011;45631;51.962;5.974;2023-08-20T11:31:14;4.18;;;1.00;;
59756;SDS011;45631;51.962;5.974;2023-08-20T11:33:42;3.30;;;1.00;;
59756;SDS011;45631;51.962;5.974;2023-08-20T11:36:10;5.45;;;0.98;;
59756;SDS011;45631;51.962;5.974;2023-08-20T11:38:39;5.05;;;1.00;;
59756;SDS011;45631;51.962;5.974;2023-08-20T11:41:07;4.90;;;1.05;;
59756;SDS011;45631;51.962;5.974;2023-08-20T11:43:40;3.90;;;0.85;;
59756;SDS011;45631;51.962;5.974;2023-08-20T11:46:13;3.33;;;0.90;;
59756;SDS011;45631;51.962;5.974;2023-08-20T11:51:29;4.90;;;1.20;;
59756;SDS011;45631;51.962;5.974;2023-08-20T11:53:57;3.60;;;1.00;;
59756;SDS011;45631;51.962;5.974;2023-08-20T11:56:26;4.63;;;0.95;;
59756;SDS011;45631;51.962;5.974;2023-08-20T11:58:58;6.18;;;1.20;;
59756;SDS011;45631;51.962;5.974;2023-08-20T12:01:31;4.32;;;1.00;;
59756;SDS011;45631;51.962;5.974;2023-08-20T12:04:00;4.90;;;0.93;;
59756;SDS011;45631;51.962;5.974;2023-08-20T12:06:30;5.20;;;1.33;;
59756;SDS011;45631;51.962;5.974;2023-08-20T12:08:58;5.03;;;0.88;;
59756;SDS011;45631;51.962;5.974;2023-08-20T12:11:27;3.88;;;0.90;;
59756;SDS011;45631;51.962;5.974;2023-08-20T12:13:55;3.55;;;0.80;;
59756;SDS011;45631;51.962;5.974;2023-08-20T12:16:24;4.88;;;1.00;;
59756;SDS011;45631;51.962;5.974;2023-08-20T12:18:53;5.55;;;0.93;;
59756;SDS011;45631;51.962;5.974;2023-08-20T12:21:22;5.65;;;1.20;;
59756;SDS011;45631;51.962;5.974;2023-08-20T12:23:50;4.82;;;1.08;;
59756;SDS011;45631;51.962;5.974;2023-08-20T12:26:18;4.63;;;0.90;;
59756;SDS011;45631;51.962;5.974;2023-08-20T12:28:46;7.28;;;1.15;;
59756;SDS011;45631;51.962;5.974;2023-08-20T12:31:14;6.57;;;1.20;;
59756;SDS011;45631;51.962;5.974;2023-08-20T12:33:42;5.60;;;1.10;;
59756;SDS011;45631;51.962;5.974;2023-08-20T12:36:15;4.57;;;1.20;;
59756;SDS011;45631;51.962;5.974;2023-08-20T12:38:43;3.97;;;1.02;;
59756;SDS011;45631;51.962;5.974;2023-08-20T12:41:11;4.38;;;1.00;;
59756;SDS011;45631;51.962;5.974;2023-08-20T12:43:40;5.68;;;1.13;;
59756;SDS011;45631;51.962;5.974;2023-08-20T12:46:10;3.35;;;0.80;;
59756;SDS011;45631;51.962;5.974;2023-08-20T12:48:42;5.57;;;1.17;;
59756;SDS011;45631;51.962;5.974;2023-08-20T12:51:10;6.05;;;1.20;;
59756;SDS011;45631;51.962;5.974;2023-08-20T12:53:41;5.45;;;1.00;;
59756;SDS011;45631;51.962;5.974;2023-08-20T12:56:10;5.07;;;1.02;;
59756;SDS011;45631;51.962;5.974;2023-08-20T12:58:38;6.05;;;1.20;;
59756;SDS011;45631;51.962;5.974;2023-08-20T13:01:06;4.03;;;1.00;;
59756;SDS011;45631;51.962;5.974;2023-08-20T13:03:35;4.28;;;1.23;;
59756;SDS011;45631;51.962;5.974;2023-08-20T13:06:05;3.80;;;1.10;;
59756;SDS011;45631;51.962;5.974;2023-08-20T13:08:34;5.25;;;1.10;;
59756;SDS011;45631;51.962;5.974;2023-08-20T13:11:04;5.60;;;1.00;;
59756;SDS011;45631;51.962;5.974;2023-08-20T13:13:35;5.07;;;1.05;;
59756;SDS011;45631;51.962;5.974;2023-08-20T13:16:06;3.97;;;0.88;;
59756;SDS011;45631;51.962;5.974;2023-08-20T13:18:35;9.50;;;1.52;;
59756;SDS011;45631;51.962;5.974;2023-08-20T13:21:04;5.22;;;1.20;;
59756;SDS011;45631;51.962;5.974;2023-08-20T13:23:35;4.90;;;1.17;;
59756;SDS011;45631;51.962;5.974;2023-08-20T13:26:04;4.05;;;1.20;;
59756;SDS011;45631;51.962;5.974;2023-08-20T13:28:36;6.25;;;1.13;;
59756;SDS011;45631;51.962;5.974;2023-08-20T13:31:04;3.63;;;1.02;;
59756;SDS011;45631;51.962;5.974;2023-08-20T13:33:32;4.93;;;1.00;;
59756;SDS011;45631;51.962;5.974;2023-08-20T13:36:00;4.40;;;0.90;;
59756;SDS011;45631;51.962;5.974;2023-08-20T13:38:28;4.47;;;0.95;;
59756;SDS011;45631;51.962;5.974;2023-08-20T13:40:56;6.10;;;1.30;;
59756;SDS011;45631;51.962;5.974;2023-08-20T13:43:26;4.47;;;1.30;;
59756;SDS011;45631;51.962;5.974;2023-08-20T13:45:54;6.55;;;1.20;;
59756;SDS011;45631;51.962;5.974;2023-08-20T13:48:22;4.10;;;1.00;;
59756;SDS011;45631;51.962;5.974;2023-08-20T13:50:50;4.68;;;1.20;;
59756;SDS011;45631;51.962;5.974;2023-08-20T13:53:18;5.90;;;0.90;;
59756;SDS011;45631;51.962;5.974;2023-08-20T13:55:46;3.15;;;1.05;;
59756;SDS011;45631;51.962;5.974;2023-08-20T13:58:15;4.38;;;1.40;;
59756;SDS011;45631;51.962;5.974;2023-08-20T14:00:44;6.50;;;1.10;;
59756;SDS011;45631;51.962;5.974;2023-08-20T14:03:13;3.40;;;0.77;;
59756;SDS011;45631;51.962;5.974;2023-08-20T14:05:41;3.20;;;0.80;;
59756;SDS011;45631;51.962;5.974;2023-08-20T14:08:11;2.72;;;0.82;;
59756;SDS011;45631;51.962;5.974;2023-08-20T14:10:41;4.47;;;1.00;;
59756;SDS011;45631;51.962;5.974;2023-08-20T14:13:10;4.53;;;1.08;;
59756;SDS011;45631;51.962;5.974;2023-08-20T14:15:38;5.00;;;1.20;;
59756;SDS011;45631;51.962;5.974;2023-08-20T14:18:08;5.30;;;1.65;;
59756;SDS011;45631;51.962;5.974;2023-08-20T14:20:36;4.28;;;1.08;;
59756;SDS011;45631;51.962;5.974;2023-08-20T14:23:04;6.03;;;1.00;;
59756;SDS011;45631;51.962;5.974;2023-08-20T14:25:33;5.20;;;1.02;;
59756;SDS011;45631;51.962;5.974;2023-08-20T14:28:01;4.50;;;0.95;;
59756;SDS011;45631;51.962;5.974;2023-08-20T14:30:29;5.32;;;1.15;;
59756;SDS011;45631;51.962;5.974;2023-08-20T14:33:00;4.55;;;0.95;;
59756;SDS011;45631;51.962;5.974;2023-08-20T14:35:29;3.25;;;0.80;;
59756;SDS011;45631;51.962;5.974;2023-08-20T14:37:58;3.30;;;0.90;;
59756;SDS011;45631;51.962;5.974;2023-08-20T14:40:26;4.05;;;1.00;;
59756;SDS011;45631;51.962;5.974;2023-08-20T14:42:54;4.70;;;1.00;;
59756;SDS011;45631;51.962;5.974;2023-08-20T14:45:23;5.85;;;1.20;;
59756;SDS011;45631;51.962;5.974;2023-08-20T14:47:51;3.88;;;1.05;;
59756;SDS011;45631;51.962;5.974;2023-08-20T14:50:19;3.45;;;1.00;;
59756;SDS011;45631;51.962;5.974;2023-08-20T14:52:48;4.03;;;1.00;;
59756;SDS011;45631;51.962;5.974;2023-08-20T14:55:18;4.88;;;1.23;;
59756;SDS011;45631;51.962;5.974;2023-08-20T14:57:47;11.75;;;8.07;;